Time;durP1;ratioP1;P1;durP2;ratioP2;P2;SDS_P1;SDS_P2;PMS_P1;PMS_P2;Temp;Humidity;BMP_temperature;BMP_pressure;BME280_temperature;BME280_humidity;BME280_pressure;Samples;Min_cycle;Max_cycle;Signal;HPM_P1;HPM_P2
2023/08/04 00:00:14;;;;;;;14.80;8.05;;;;;;;13.12;100.00;100848.03;5037466;28;20017;-69
2023/08/04 00:02:39;;;;;;;15.98;7.53;;;;;;;13.07;100.00;100850.13;5027742;28;20036;-70
2023/08/04 00:05:06;;;;;;;18.77;8.35;;;;;;;13.04;100.00;100851.19;5033590;28;20025;-70
2023/08/04 00:07:33;;;;;;;17.08;7.85;;;;;;;13.05;100.00;100852.91;5041296;28;20033;-68
2023/08/04 00:09:58;;;;;;;14.90;7.80;;;;;;;13.04;100.00;100852.97;5025855;28;20030;-69
2023/08/04 00:12:24;;;;;;;15.20;7.20;;;;;;;13.00;100.00;100856.78;5044765;28;20559;-69
2023/08/04 00:14:49;;;;;;;17.42;8.32;;;;;;;12.99;100.00;100868.44;5041295;28;21055;-70
2023/08/04 00:17:15;;;;;;;15.98;7.50;;;;;;;12.96;100.00;100867.69;5022198;28;20029;-70
2023/08/04 00:19:41;;;;;;;16.08;8.38;;;;;;;12.95;100.00;100865.94;5032496;28;20025;-70
2023/08/04 00:22:07;;;;;;;14.63;8.23;;;;;;;12.95;100.00;100875.75;5022826;28;20083;-70
2023/08/04 00:24:33;;;;;;;18.80;9.02;;;;;;;12.94;100.00;100871.38;5032988;28;20499;-69
2023/08/04 00:27:03;;;;;;;21.55;9.10;;;;;;;12.93;100.00;100867.84;5042037;28;20508;-69
2023/08/04 00:29:28;;;;;;;21.45;10.10;;;;;;;12.86;100.00;100871.84;5039037;28;20021;-69
2023/08/04 00:31:54;;;;;;;15.30;8.40;;;;;;;12.92;100.00;100876.84;5049580;28;20033;-69
2023/08/04 00:34:19;;;;;;;17.70;9.15;;;;;;;12.95;100.00;100876.63;5034108;28;20644;-69
2023/08/04 00:36:46;;;;;;;18.35;9.18;;;;;;;13.02;100.00;100885.16;5045263;28;20411;-69
2023/08/04 00:39:13;;;;;;;13.52;8.27;;;;;;;13.05;100.00;100889.44;5059179;28;20108;-70
2023/08/04 00:41:38;;;;;;;12.23;7.90;;;;;;;13.09;100.00;100893.66;5035814;28;20415;-68
2023/08/04 00:44:04;;;;;;;16.70;9.15;;;;;;;13.10;100.00;100885.53;5045640;28;20033;-70
2023/08/04 00:46:33;;;;;;;15.07;8.52;;;;;;;13.05;100.00;100874.28;5035470;28;20478;-69
2023/08/04 00:48:59;;;;;;;17.48;8.88;;;;;;;13.10;100.00;100885.53;5041215;28;20530;-69
2023/08/04 00:51:25;;;;;;;18.33;9.23;;;;;;;13.08;100.00;100889.25;5056599;28;20033;-70
2023/08/04 00:53:51;;;;;;;17.13;9.23;;;;;;;13.04;100.00;100885.94;5043460;28;20043;-69
2023/08/04 00:56:17;;;;;;;14.98;8.18;;;;;;;13.00;100.00;100888.84;5034589;28;20025;-70
2023/08/04 00:58:42;;;;;;;15.65;8.65;;;;;;;12.96;100.00;100885.53;5045039;28;20021;-70
2023/08/04 01:01:07;;;;;;;16.75;8.43;;;;;;;12.96;100.00;100893.53;5060947;28;20121;-69
2023/08/04 01:03:34;;;;;;;17.38;9.27;;;;;;;12.96;100.00;100888.19;5033555;28;20540;-69
2023/08/04 01:06:05;;;;;;;16.48;8.88;;;;;;;12.99;100.00;100897.81;5026523;28;20079;-69
2023/08/04 01:08:35;;;;;;;17.92;9.65;;;;;;;12.95;100.00;100892.66;5029240;28;20029;-69
2023/08/04 01:11:09;;;;;;;16.88;9.40;;;;;;;12.92;100.00;100903.53;5026362;28;20025;-70
2023/08/04 01:13:37;;;;;;;17.05;9.32;;;;;;;12.90;100.00;100894.75;5034666;28;20033;-69
2023/08/04 01:16:06;;;;;;;14.00;8.73;;;;;;;12.80;100.00;100900.75;5028366;28;20039;-69
2023/08/04 01:18:31;;;;;;;16.40;9.23;;;;;;;12.75;100.00;100895.69;5036858;28;20108;-68
2023/08/04 01:21:04;;;;;;;14.30;9.27;;;;;;;12.79;100.00;100902.56;5042431;28;20124;-69
2023/08/04 01:23:29;;;;;;;17.45;9.75;;;;;;;12.80;100.00;100914.97;5025926;28;20514;-69
2023/08/04 01:25:55;;;;;;;19.25;8.13;;;;;;;12.78;100.00;100914.16;5033152;28;20151;-70
2023/08/04 01:28:21;;;;;;;17.23;10.02;;;;;;;12.77;100.00;100901.78;5047269;28;20321;-69
2023/08/04 01:30:49;;;;;;;15.07;9.13;;;;;;;12.78;100.00;100903.50;5036457;28;20033;-69
2023/08/04 01:33:15;;;;;;;16.00;9.15;;;;;;;12.72;100.00;100893.19;5045131;28;20099;-69
2023/08/04 01:35:42;;;;;;;18.88;10.18;;;;;;;12.74;100.00;100917.97;5049350;28;20208;-69
2023/08/04 01:38:08;;;;;;;15.80;9.05;;;;;;;12.70;100.00;100916.44;5046751;28;20028;-69
2023/08/04 01:40:33;;;;;;;18.70;9.10;;;;;;;12.67;100.00;100917.50;5056172;28;20040;-69
2023/08/04 01:42:58;;;;;;;18.98;10.05;;;;;;;12.71;100.00;100928.84;5038357;28;20029;-70
2023/08/04 01:45:24;;;;;;;15.50;9.93;;;;;;;12.74;100.00;100922.47;5042381;28;20063;-70
2023/08/04 01:47:50;;;;;;;19.35;10.55;;;;;;;12.78;100.00;100924.84;5037115;28;20072;-68
2023/08/04 01:50:15;;;;;;;17.77;11.18;;;;;;;12.82;100.00;100930.88;5043310;28;20109;-70
2023/08/04 01:52:41;;;;;;;17.15;10.00;;;;;;;12.81;100.00;100929.16;5037599;28;20182;-69
2023/08/04 01:55:06;;;;;;;16.55;10.43;;;;;;;12.86;100.00;100927.06;5055303;28;20031;-69
2023/08/04 01:57:32;;;;;;;16.58;10.80;;;;;;;12.90;100.00;100934.81;5056368;28;20036;-69
2023/08/04 01:59:57;;;;;;;22.00;10.60;;;;;;;12.89;100.00;100926.91;5047227;28;20032;-70
2023/08/04 02:02:23;;;;;;;17.83;10.50;;;;;;;12.88;100.00;100920.72;5043423;28;20391;-69
2023/08/04 02:04:48;;;;;;;16.63;9.45;;;;;;;12.92;100.00;100924.06;5034508;28;20502;-69
2023/08/04 02:07:13;;;;;;;20.27;10.05;;;;;;;12.95;100.00;100924.72;5043073;28;20477;-69
2023/08/04 02:09:39;;;;;;;22.80;9.82;;;;;;;12.99;100.00;100919.19;5046007;28;20830;-69
2023/08/04 02:12:04;;;;;;;17.05;9.10;;;;;;;12.96;100.00;100921.13;5024738;28;20575;-69
2023/08/04 02:14:30;;;;;;;12.93;8.45;;;;;;;12.94;100.00;100922.16;5050869;28;20623;-69
2023/08/04 02:16:56;;;;;;;20.65;9.30;;;;;;;12.95;100.00;100926.53;5036309;28;20549;-69
2023/08/04 02:19:22;;;;;;;17.35;9.05;;;;;;;12.92;100.00;100932.94;5029271;28;20029;-69
2023/08/04 02:21:48;;;;;;;15.55;8.77;;;;;;;12.89;100.00;100935.78;5042625;28;20025;-69
2023/08/04 02:24:14;;;;;;;16.10;8.98;;;;;;;12.87;100.00;100936.81;5048056;28;20120;-69
2023/08/04 02:26:39;;;;;;;17.20;9.10;;;;;;;12.80;100.00;100939.00;5040209;28;20104;-70
2023/08/04 02:29:04;;;;;;;17.65;9.73;;;;;;;12.79;100.00;100937.28;5037255;28;20035;-68
2023/08/04 02:31:32;;;;;;;14.40;8.93;;;;;;;12.80;100.00;100935.47;5035730;28;20029;-70
2023/08/04 02:33:58;;;;;;;17.70;9.02;;;;;;;12.73;100.00;100929.63;5052367;28;20024;-69
2023/08/04 02:36:24;;;;;;;17.88;9.27;;;;;;;12.71;100.00;100924.38;5057340;28;20687;-69
2023/08/04 02:38:50;;;;;;;14.13;9.20;;;;;;;12.64;100.00;100933.69;5049856;28;20028;-70
2023/08/04 02:41:15;;;;;;;14.95;9.38;;;;;;;12.58;100.00;100930.50;5041234;28;20072;-69
2023/08/04 02:43:41;;;;;;;16.00;9.68;;;;;;;12.54;100.00;100939.63;5064554;28;20651;-69
2023/08/04 02:46:10;;;;;;;17.58;9.35;;;;;;;12.45;100.00;100939.19;5049056;28;20053;-69
2023/08/04 02:48:35;;;;;;;16.15;9.25;;;;;;;12.43;100.00;100948.25;5044732;28;20068;-69
2023/08/04 02:51:05;;;;;;;16.75;9.43;;;;;;;12.42;100.00;100951.91;5043622;28;20557;-69
2023/08/04 02:53:32;;;;;;;15.93;9.25;;;;;;;12.41;100.00;100951.00;5042057;28;20569;-70
2023/08/04 02:55:58;;;;;;;14.77;9.10;;;;;;;12.40;100.00;100951.09;5036141;28;20029;-69
2023/08/04 02:58:24;;;;;;;18.20;9.40;;;;;;;12.34;100.00;100948.78;5041721;28;20036;-69
2023/08/04 03:00:50;;;;;;;17.30;10.05;;;;;;;12.34;100.00;100946.97;5042375;28;20055;-69
2023/08/04 03:03:17;;;;;;;21.20;9.52;;;;;;;12.32;100.00;100951.53;5041307;28;20036;-69
2023/08/04 03:05:42;;;;;;;17.17;9.70;;;;;;;12.34;100.00;100952.31;5039166;28;20029;-69
2023/08/04 03:08:08;;;;;;;16.60;9.43;;;;;;;12.43;100.00;100956.28;5025762;28;20040;-69
2023/08/04 03:10:33;;;;;;;18.58;10.38;;;;;;;12.44;100.00;100961.50;5025207;28;20031;-70
2023/08/04 03:12:59;;;;;;;16.30;9.32;;;;;;;12.44;100.00;100956.19;5048747;28;20032;-69
2023/08/04 03:15:24;;;;;;;15.95;9.95;;;;;;;12.48;100.00;100956.88;5047499;28;20039;-69
2023/08/04 03:17:52;;;;;;;20.33;10.68;;;;;;;12.43;100.00;100965.13;5034984;28;20025;-69
2023/08/04 03:20:18;;;;;;;19.55;10.77;;;;;;;12.44;100.00;100963.31;5042541;28;20029;-69
2023/08/04 03:22:43;;;;;;;17.13;10.35;;;;;;;12.49;100.00;100955.06;5039152;28;20083;-70
2023/08/04 03:25:09;;;;;;;16.55;9.95;;;;;;;12.48;100.00;100964.88;5046879;28;20079;-69
2023/08/04 03:27:35;;;;;;;19.60;10.52;;;;;;;12.49;100.00;100966.59;5041233;28;20030;-70
2023/08/04 03:30:04;;;;;;;15.77;10.07;;;;;;;12.47;100.00;100971.16;5047313;28;20033;-70
2023/08/04 03:32:30;;;;;;;15.45;10.00;;;;;;;12.43;100.00;100965.13;5047338;28;20118;-69
2023/08/04 03:34:55;;;;;;;16.17;10.23;;;;;;;12.33;100.00;100963.94;5049848;28;20982;-70
2023/08/04 03:37:20;;;;;;;19.80;10.10;;;;;;;12.33;100.00;100966.63;5047072;28;20481;-70
2023/08/04 03:39:46;;;;;;;13.95;9.25;;;;;;;12.29;100.00;100966.84;5047495;28;20025;-69
2023/08/04 03:42:11;;;;;;;20.05;10.45;;;;;;;12.30;100.00;100968.59;5051258;28;20024;-69
2023/08/04 03:44:36;;;;;;;17.35;10.60;;;;;;;12.29;100.00;100972.19;5039571;28;20029;-69
2023/08/04 03:47:02;;;;;;;17.05;9.95;;;;;;;12.29;100.00;100967.75;5045849;28;20150;-69
2023/08/04 03:49:27;;;;;;;18.88;9.93;;;;;;;12.36;100.00;100969.09;5049176;28;20142;-69
2023/08/04 03:51:53;;;;;;;16.63;11.27;;;;;;;12.35;100.00;100969.19;5049349;28;20029;-70
2023/08/04 03:54:18;;;;;;;20.00;10.65;;;;;;;12.37;100.00;100965.50;5034281;28;20430;-68
2023/08/04 03:56:43;;;;;;;16.77;10.35;;;;;;;12.39;100.00;100968.06;5030779;28;20032;-70
2023/08/04 03:59:11;;;;;;;19.98;10.43;;;;;;;12.45;100.00;100973.06;5029199;28;20025;-70
2023/08/04 04:01:37;;;;;;;20.45;11.20;;;;;;;12.45;100.00;100971.25;5022666;28;20026;-70
2023/08/04 04:04:03;;;;;;;18.30;10.05;;;;;;;12.51;100.00;100977.19;5038092;28;20037;-69
2023/08/04 04:06:28;;;;;;;18.23;10.70;;;;;;;12.53;100.00;100980.63;5030060;28;20546;-69
2023/08/04 04:08:54;;;;;;;18.02;10.55;;;;;;;12.56;100.00;100975.97;5038750;28;20112;-69
2023/08/04 04:11:20;;;;;;;22.83;11.30;;;;;;;12.64;100.00;100983.56;5026509;28;20182;-69
2023/08/04 04:13:45;;;;;;;15.00;9.85;;;;;;;12.62;100.00;100983.66;5037604;28;20589;-69
2023/08/04 04:16:10;;;;;;;17.60;10.30;;;;;;;12.66;100.00;100978.97;5030562;28;20506;-69
2023/08/04 04:18:36;;;;;;;20.88;10.45;;;;;;;12.66;100.00;100982.50;5026880;28;20018;-70
2023/08/04 04:21:04;;;;;;;15.80;10.25;;;;;;;12.65;100.00;100977.25;5042303;28;20418;-69
2023/08/04 04:23:30;;;;;;;17.20;10.68;;;;;;;12.62;100.00;100978.31;5056274;28;20037;-69
2023/08/04 04:25:55;;;;;;;15.23;10.30;;;;;;;12.63;100.00;100984.50;5047417;28;20834;-69
2023/08/04 04:28:20;;;;;;;16.85;10.23;;;;;;;12.61;100.00;100989.06;5051631;28;20111;-70
2023/08/04 04:30:45;;;;;;;19.52;10.40;;;;;;;12.55;100.00;100984.09;5046200;28;20052;-70
2023/08/04 04:33:11;;;;;;;16.80;10.20;;;;;;;12.56;100.00;100991.16;5069624;28;20090;-68
2023/08/04 04:35:36;;;;;;;20.58;11.35;;;;;;;12.54;100.00;100999.25;5051683;28;20028;-69
2023/08/04 04:38:02;;;;;;;15.98;10.30;;;;;;;12.58;100.00;101002.59;5053909;28;20029;-70
2023/08/04 04:40:27;;;;;;;15.65;10.45;;;;;;;12.59;100.00;100994.50;5053296;28;20109;-69
2023/08/04 04:42:53;;;;;;;16.85;10.73;;;;;;;12.59;100.00;100993.66;5051370;28;20033;-69
2023/08/04 04:45:18;;;;;;;17.77;10.80;;;;;;;12.61;100.00;101000.59;5049324;28;20436;-69
2023/08/04 04:47:43;;;;;;;20.38;11.02;;;;;;;12.66;100.00;101000.34;5049952;28;20060;-69
2023/08/04 04:50:09;;;;;;;23.63;11.80;;;;;;;12.63;100.00;101005.88;5046231;28;20029;-69
2023/08/04 04:52:36;;;;;;;14.50;10.32;;;;;;;12.66;100.00;101013.69;5043236;28;20021;-69
2023/08/04 04:55:03;;;;;;;18.63;11.07;;;;;;;12.68;100.00;101012.66;5037474;28;20025;-70
2023/08/04 04:57:29;;;;;;;18.35;10.60;;;;;;;12.68;100.00;101012.66;5037261;28;20025;-69
2023/08/04 04:59:55;;;;;;;16.15;10.27;;;;;;;12.67;100.00;101010.97;5043758;28;20494;-69
2023/08/04 05:02:20;;;;;;;14.38;9.68;;;;;;;12.70;100.00;101015.25;5033357;28;20028;-69
2023/08/04 05:04:46;;;;;;;17.08;11.35;;;;;;;12.67;100.00;101016.28;5035794;28;20033;-70
2023/08/04 05:07:11;;;;;;;16.73;11.13;;;;;;;12.73;100.00;101016.88;5032146;28;20032;-70
2023/08/04 05:09:38;;;;;;;17.15;11.15;;;;;;;12.74;100.00;101026.63;5051958;28;20029;-69
2023/08/04 05:12:03;;;;;;;16.05;11.10;;;;;;;12.71;100.00;101023.19;5043010;28;20494;-68
2023/08/04 05:14:29;;;;;;;18.70;11.80;;;;;;;12.73;100.00;101027.56;5053271;28;20043;-70
2023/08/04 05:16:54;;;;;;;17.83;10.95;;;;;;;12.69;100.00;101026.88;5030198;28;20028;-69
2023/08/04 05:19:19;;;;;;;18.60;11.25;;;;;;;12.70;100.00;101029.44;5036716;28;20021;-69
2023/08/04 05:21:45;;;;;;;21.83;11.45;;;;;;;12.74;100.00;101032.81;5031169;28;20025;-70
2023/08/04 05:24:10;;;;;;;16.60;11.85;;;;;;;12.80;100.00;101032.47;5031862;28;20171;-69
2023/08/04 05:26:36;;;;;;;19.23;11.10;;;;;;;12.83;100.00;101032.31;5043556;28;20033;-70
2023/08/04 05:29:04;;;;;;;15.15;10.82;;;;;;;12.87;100.00;101041.84;5057014;28;20028;-70
2023/08/04 05:31:29;;;;;;;20.77;11.95;;;;;;;12.94;100.00;101050.38;5059217;28;20035;-70
2023/08/04 05:33:56;;;;;;;17.75;11.85;;;;;;;12.94;100.00;101035.22;5030568;28;20026;-70
2023/08/04 05:36:22;;;;;;;18.63;12.30;;;;;;;13.05;100.00;101049.78;5028160;28;20361;-69
2023/08/04 05:38:48;;;;;;;17.73;11.48;;;;;;;13.11;100.00;101047.59;5049146;28;20055;-69
2023/08/04 05:41:13;;;;;;;19.55;11.90;;;;;;;13.20;100.00;101046.19;5042667;28;20391;-70
2023/08/04 05:43:39;;;;;;;19.75;10.90;;;;;;;13.24;100.00;101039.75;5044357;28;20040;-70
2023/08/04 05:46:04;;;;;;;16.90;11.05;;;;;;;13.32;100.00;101053.53;5037912;28;20109;-70
2023/08/04 05:48:33;;;;;;;16.90;11.60;;;;;;;13.27;100.00;101039.56;5048557;28;20093;-70
2023/08/04 05:50:59;;;;;;;16.55;11.30;;;;;;;13.37;100.00;101054.09;5055260;28;20495;-71
2023/08/04 05:53:26;;;;;;;16.50;10.75;;;;;;;13.43;100.00;101052.91;5053571;28;20035;-68
2023/08/04 05:55:51;;;;;;;16.58;11.27;;;;;;;13.51;100.00;101058.66;5044576;28;20131;-69
2023/08/04 05:58:17;;;;;;;17.70;11.20;;;;;;;13.63;100.00;101049.91;5046474;28;20115;-69
2023/08/04 06:00:42;;;;;;;15.50;9.82;;;;;;;13.97;100.00;101055.00;5043253;28;20024;-69
2023/08/04 06:03:08;;;;;;;16.73;11.05;;;;;;;14.21;100.00;101058.81;5049701;28;20506;-70
2023/08/04 06:05:33;;;;;;;16.35;10.55;;;;;;;14.58;100.00;101059.19;5049389;28;20033;-69
2023/08/04 06:07:59;;;;;;;13.65;10.00;;;;;;;15.05;100.00;101068.63;5048367;28;20194;-69
2023/08/04 06:10:25;;;;;;;17.35;10.35;;;;;;;15.31;100.00;101062.44;5048015;28;20024;-69
2023/08/04 06:12:50;;;;;;;12.93;9.02;;;;;;;15.48;100.00;101060.44;5031171;28;20026;-69
2023/08/04 06:15:16;;;;;;;12.70;8.95;;;;;;;15.39;100.00;101057.41;5044446;28;20509;-69
2023/08/04 06:17:43;;;;;;;15.30;8.70;;;;;;;15.45;100.00;101073.06;5046896;28;20398;-68
2023/08/04 06:20:09;;;;;;;13.68;8.85;;;;;;;15.45;100.00;101080.25;5038414;28;20036;-69
2023/08/04 06:22:35;;;;;;;13.32;7.82;;;;;;;15.42;100.00;101078.66;5042371;28;20032;-70
2023/08/04 06:25:01;;;;;;;14.98;8.38;;;;;;;15.39;100.00;101080.69;5043920;28;20055;-69
2023/08/04 06:27:27;;;;;;;14.02;8.70;;;;;;;15.41;100.00;101084.13;5068016;28;20090;-69
2023/08/04 06:29:52;;;;;;;13.15;8.70;;;;;;;15.52;100.00;101083.41;5045760;28;20032;-69
2023/08/04 06:32:17;;;;;;;14.98;8.82;;;;;;;15.67;100.00;101087.72;5036884;28;20033;-70
2023/08/04 06:34:43;;;;;;;13.10;8.45;;;;;;;15.70;100.00;101090.22;5041178;28;20032;-70
2023/08/04 06:37:08;;;;;;;10.95;8.20;;;;;;;15.69;100.00;101093.88;5038633;28;20143;-69
2023/08/04 06:39:34;;;;;;;12.48;8.93;;;;;;;15.77;100.00;101094.22;5040539;28;20035;-69
2023/08/04 06:41:59;;;;;;;13.07;8.10;;;;;;;16.05;100.00;101094.97;5045127;28;20502;-70
2023/08/04 06:44:24;;;;;;;14.07;8.13;;;;;;;16.17;100.00;101096.78;5041468;28;20032;-68
2023/08/04 06:46:50;;;;;;;11.52;7.88;;;;;;;16.40;100.00;101105.94;5040069;28;20037;-69
2023/08/04 06:49:15;;;;;;;11.88;7.90;;;;;;;16.79;100.00;101107.59;5035689;28;20045;-69
2023/08/04 06:51:40;;;;;;;13.77;7.50;;;;;;;17.05;100.00;101110.19;5039629;28;20060;-69
2023/08/04 06:54:06;;;;;;;9.90;7.05;;;;;;;17.44;100.00;101101.00;5049601;28;20055;-69
2023/08/04 06:56:32;;;;;;;12.40;6.82;;;;;;;17.76;100.00;101108.47;5042799;28;20029;-69
2023/08/04 06:58:57;;;;;;;11.30;7.07;;;;;;;17.88;100.00;101119.16;5039045;28;20020;-70
2023/08/04 07:01:23;;;;;;;12.02;7.00;;;;;;;17.82;100.00;101110.72;5047368;28;20032;-70
2023/08/04 07:03:48;;;;;;;12.43;7.25;;;;;;;17.71;100.00;101118.72;5053829;28;20566;-70
2023/08/04 07:06:14;;;;;;;9.40;6.65;;;;;;;17.73;100.00;101119.47;5038273;28;20071;-70
2023/08/04 07:08:40;;;;;;;10.73;5.90;;;;;;;17.89;100.00;101120.00;5049143;28;20139;-69
2023/08/04 07:11:14;;;;;;;11.82;6.60;;;;;;;18.25;100.00;101120.84;5039438;28;20108;-69
2023/08/04 07:13:39;;;;;;;10.00;6.40;;;;;;;18.32;100.00;101116.69;5033625;28;20095;-71
2023/08/04 07:16:04;;;;;;;8.55;5.85;;;;;;;18.36;100.00;101110.94;5037360;28;20033;-71
2023/08/04 07:18:30;;;;;;;10.60;5.53;;;;;;;18.59;100.00;101124.41;5039764;28;20036;-71
2023/08/04 07:21:06;;;;;;;8.30;5.50;;;;;;;18.68;100.00;101129.03;5045177;28;20020;-70
2023/08/04 07:23:35;;;;;;;7.07;5.00;;;;;;;18.95;100.00;101122.44;5043917;28;20037;-70
2023/08/04 07:26:00;;;;;;;9.35;5.55;;;;;;;19.04;100.00;101129.78;5056936;28;20138;-70
2023/08/04 07:28:25;;;;;;;9.65;5.20;;;;;;;19.16;100.00;101126.06;5045338;28;20021;-69
2023/08/04 07:30:51;;;;;;;8.95;5.07;;;;;;;19.18;99.21;101124.09;5046348;28;20116;-71
2023/08/04 07:33:16;;;;;;;8.05;5.10;;;;;;;19.12;96.58;101130.00;5036579;28;20028;-70
2023/08/04 07:35:41;;;;;;;7.57;4.50;;;;;;;18.94;98.78;101126.13;5048503;28;20478;-69
2023/08/04 07:38:07;;;;;;;7.05;4.90;;;;;;;18.61;100.00;101126.00;5039077;28;20435;-70
2023/08/04 07:40:37;;;;;;;6.38;4.90;;;;;;;18.38;100.00;101130.50;5038402;28;20116;-70
2023/08/04 07:43:04;;;;;;;7.57;4.68;;;;;;;18.15;100.00;101131.47;5049130;28;20025;-70
2023/08/04 07:45:29;;;;;;;8.52;4.90;;;;;;;17.77;100.00;101143.38;5037671;28;20123;-70
2023/08/04 07:47:55;;;;;;;7.85;4.88;;;;;;;17.69;100.00;101140.38;5045698;28;20131;-70
2023/08/04 07:50:20;;;;;;;6.97;4.40;;;;;;;17.73;100.00;101143.69;5049767;28;20045;-69
2023/08/04 07:52:45;;;;;;;7.20;4.20;;;;;;;17.92;100.00;101142.19;5052669;28;20033;-69
2023/08/04 07:55:11;;;;;;;8.50;4.13;;;;;;;18.30;100.00;101132.09;5059936;28;20504;-69
2023/08/04 07:57:36;;;;;;;6.25;4.03;;;;;;;18.89;100.00;101143.53;5045192;28;20033;-70
2023/08/04 08:00:04;;;;;;;3.97;2.78;;;;;;;19.13;94.80;101134.41;5026508;28;20032;-70
2023/08/04 08:02:30;;;;;;;7.63;3.03;;;;;;;19.10;93.59;101138.25;5049217;28;20028;-70
2023/08/04 08:04:55;;;;;;;3.42;3.08;;;;;;;18.89;93.91;101146.25;5037137;28;20024;-69
2023/08/04 08:07:20;;;;;;;4.70;2.88;;;;;;;18.89;94.10;101154.34;5046874;28;20033;-69
2023/08/04 08:09:45;;;;;;;7.20;2.90;;;;;;;18.84;94.92;101152.97;5057726;28;20549;-69
2023/08/04 08:12:11;;;;;;;5.85;3.13;;;;;;;18.83;95.87;101153.97;5041024;28;20215;-70
2023/08/04 08:14:36;;;;;;;5.82;2.88;;;;;;;18.87;96.10;101150.88;5039839;28;20029;-70
2023/08/04 08:17:02;;;;;;;4.28;2.88;;;;;;;19.07;95.07;101151.13;5052655;28;20032;-70
2023/08/04 08:19:28;;;;;;;6.97;3.00;;;;;;;19.09;93.10;101152.69;5037692;28;20033;-68
2023/08/04 08:21:53;;;;;;;4.95;2.95;;;;;;;19.28;95.11;101157.44;5046414;28;20095;-67
2023/08/04 08:24:19;;;;;;;6.18;3.10;;;;;;;19.37;92.44;101161.22;5038743;28;20021;-67
2023/08/04 08:26:44;;;;;;;6.80;2.67;;;;;;;19.61;91.80;101159.22;5045570;28;20036;-69
2023/08/04 08:29:09;;;;;;;5.80;3.00;;;;;;;19.51;90.38;101168.16;5040274;28;20035;-68
2023/08/04 08:31:35;;;;;;;5.70;3.00;;;;;;;19.23;91.82;101170.47;5038875;28;20083;-68
2023/08/04 08:34:00;;;;;;;3.58;2.35;;;;;;;19.05;90.05;101177.34;5042368;28;20965;-68
2023/08/04 08:36:26;;;;;;;4.68;2.42;;;;;;;19.25;88.10;101173.88;5039649;28;20033;-68
2023/08/04 08:38:51;;;;;;;5.78;2.80;;;;;;;19.62;88.08;101177.13;5039314;28;20083;-68
2023/08/04 08:41:16;;;;;;;6.47;3.28;;;;;;;19.99;88.35;101165.91;5041965;28;20039;-68
2023/08/04 08:43:44;;;;;;;4.45;2.55;;;;;;;20.56;87.17;101177.25;5047199;28;20029;-69
2023/08/04 08:46:10;;;;;;;5.50;3.22;;;;;;;21.05;83.34;101175.59;5035328;28;20490;-69
2023/08/04 08:48:39;;;;;;;5.80;2.75;;;;;;;21.43;79.95;101188.41;5043240;28;20051;-70
2023/08/04 08:51:09;;;;;;;3.45;2.30;;;;;;;21.49;77.24;101192.41;5038452;28;20043;-70
2023/08/04 08:53:36;;;;;;;4.70;2.28;;;;;;;21.59;77.17;101188.72;5039722;28;20029;-68
2023/08/04 08:56:07;;;;;;;3.60;2.10;;;;;;;21.81;75.74;101200.28;5036983;28;20120;-69
2023/08/04 08:58:33;;;;;;;4.65;2.25;;;;;;;22.16;72.51;101196.16;5047018;28;20028;-69
2023/08/04 09:01:00;;;;;;;2.58;1.85;;;;;;;22.33;72.04;101196.28;5064605;28;20028;-68
2023/08/04 09:03:26;;;;;;;4.38;2.53;;;;;;;22.49;71.35;101194.78;5042337;28;20017;-69
2023/08/04 09:05:52;;;;;;;3.28;2.03;;;;;;;22.68;68.04;101197.47;5048858;28;20048;-69
2023/08/04 09:08:17;;;;;;;2.90;1.90;;;;;;;22.60;66.38;101203.63;5054267;28;20021;-69
2023/08/04 09:10:44;;;;;;;2.35;1.60;;;;;;;22.54;65.51;101197.94;5052129;28;20078;-69
2023/08/04 09:13:11;;;;;;;4.78;1.70;;;;;;;22.52;65.29;101197.22;5043694;28;20032;-69
2023/08/04 09:15:58;;;;;;;3.10;2.00;;;;;;;22.77;70.00;101206.56;5025697;28;20026;-68
2023/08/04 09:18:28;;;;;;;3.88;1.80;;;;;;;22.84;67.72;101197.69;5038750;28;20048;-69
2023/08/04 09:21:09;;;;;;;2.92;1.70;;;;;;;22.83;68.97;101203.28;5035871;28;20415;-69
2023/08/04 09:23:36;;;;;;;3.92;1.80;;;;;;;22.50;68.67;101210.09;5049466;28;20071;-69
2023/08/04 09:26:02;;;;;;;4.63;1.63;;;;;;;22.02;69.05;101211.81;5039333;28;20030;-69
2023/08/04 09:28:27;;;;;;;5.93;2.25;;;;;;;21.64;71.24;101215.38;5046872;28;20573;-70
2023/08/04 09:31:19;;;;;;;3.25;2.08;;;;;;;21.79;75.08;101216.69;5041867;28;20476;-70
2023/08/04 09:33:44;;;;;;;2.95;1.90;;;;;;;21.43;74.06;101222.75;5038004;28;20037;-70
2023/08/04 09:36:16;;;;;;;3.17;1.90;;;;;;;21.28;75.36;101215.00;5049857;28;20061;-69
2023/08/04 09:38:43;;;;;;;3.67;2.10;;;;;;;21.05;76.15;101213.50;5048422;28;20039;-69
2023/08/04 09:41:13;;;;;;;4.15;2.30;;;;;;;20.85;77.45;101215.25;5043166;28;20024;-70
2023/08/04 09:43:46;;;;;;;5.88;2.50;;;;;;;20.75;78.37;101219.78;5054060;28;20126;-69
2023/08/04 09:46:12;;;;;;;5.10;2.55;;;;;;;20.73;80.56;101219.03;5027845;28;20040;-69
2023/08/04 09:48:38;;;;;;;6.28;2.65;;;;;;;20.59;79.77;101225.66;5034718;28;20042;-70
2023/08/04 09:51:13;;;;;;;3.40;2.33;;;;;;;20.97;79.62;101225.00;5050343;28;20097;-70
2023/08/04 09:53:38;;;;;;;4.70;2.53;;;;;;;21.26;78.87;101222.38;5043974;28;20025;-69
2023/08/04 09:56:04;;;;;;;3.58;2.45;;;;;;;21.51;76.62;101223.75;5050209;28;20393;-69
2023/08/04 09:58:30;;;;;;;5.90;2.10;;;;;;;22.69;70.35;101215.44;5060013;28;20033;-70
2023/08/04 10:00:56;;;;;;;3.05;1.65;;;;;;;24.43;64.10;101212.66;5072902;28;20619;-69
2023/08/04 10:03:22;;;;;;;2.30;1.60;;;;;;;25.04;62.26;101214.34;5047746;28;20106;-70
2023/08/04 10:05:48;;;;;;;4.15;1.73;;;;;;;24.16;58.77;101216.31;5046751;28;20025;-70
2023/08/04 10:08:15;;;;;;;2.35;1.38;;;;;;;23.63;62.69;101215.28;5050143;28;20080;-69
2023/08/04 10:10:41;;;;;;;3.35;1.73;;;;;;;23.96;65.25;101223.81;5046995;28;20037;-69
2023/08/04 10:13:08;;;;;;;3.97;2.10;;;;;;;25.86;61.38;101214.66;5048837;28;20035;-69
2023/08/04 10:15:34;;;;;;;3.80;1.95;;;;;;;27.48;54.99;101216.25;5042007;28;20029;-70
2023/08/04 10:18:00;;;;;;;1.98;1.50;;;;;;;28.16;51.17;101216.47;5043503;28;20052;-70
2023/08/04 10:20:27;;;;;;;2.95;1.90;;;;;;;28.74;48.45;101215.75;5046683;28;20040;-71
2023/08/04 10:22:52;;;;;;;9.23;1.80;;;;;;;28.34;48.78;101219.72;5046651;28;20581;-70
2023/08/04 10:25:18;;;;;;;2.53;1.50;;;;;;;27.62;49.18;101217.34;5041180;28;20025;-71
2023/08/04 10:27:48;;;;;;;2.00;1.10;;;;;;;27.97;48.88;101224.16;5047184;28;20486;-70
2023/08/04 10:30:13;;;;;;;2.00;1.40;;;;;;;28.62;46.42;101217.25;5046675;28;20190;-71
2023/08/04 10:32:41;;;;;;;2.75;1.48;;;;;;;28.74;46.93;101214.91;5038350;28;20487;-70
2023/08/04 10:35:16;;;;;;;3.08;1.60;;;;;;;28.02;47.45;101226.34;5048263;28;20107;-71
2023/08/04 10:37:59;;;;;;;4.93;1.50;;;;;;;26.93;52.24;101225.34;5047095;28;20028;-71
2023/08/04 10:40:30;;;;;;;2.80;1.15;;;;;;;24.95;54.84;101239.84;5051693;28;20020;-70
2023/08/04 10:42:59;;;;;;;2.83;1.55;;;;;;;23.42;60.68;101245.47;5040820;28;20029;-70
2023/08/04 10:45:55;;;;;;;2.40;1.45;;;;;;;21.87;69.50;101246.63;5056326;28;20032;-69
2023/08/04 10:48:21;;;;;;;2.92;1.70;;;;;;;20.37;83.26;101249.13;5058025;28;20642;-69
2023/08/04 10:50:49;;;;;;;3.08;1.60;;;;;;;19.57;93.82;101245.97;5046068;28;20056;-72
2023/08/04 10:53:15;;;;;;;2.00;1.45;;;;;;;18.94;89.16;101242.13;5043177;28;20120;-71
2023/08/04 10:55:54;;;;;;;2.58;1.40;;;;;;;18.69;100.00;101244.03;5043106;28;20028;-71
2023/08/04 10:58:20;;;;;;;2.33;1.63;;;;;;;18.75;100.00;101248.09;5029334;28;20029;-70
2023/08/04 11:00:46;;;;;;;3.22;1.77;;;;;;;19.90;100.00;101253.16;5049036;28;20055;-70
2023/08/04 11:03:28;;;;;;;3.25;1.48;;;;;;;22.38;87.92;101253.63;5050609;28;20028;-71
2023/08/04 11:05:54;;;;;;;1.92;1.50;;;;;;;24.05;74.25;101241.91;5032649;28;20028;-71
2023/08/04 11:08:21;;;;;;;2.50;1.65;;;;;;;24.56;71.38;101246.59;5040441;28;20032;-71